Terminal Aerodrome Forecast
Issued by NWS Sterling, VA

Home | Current Version | Previous Version | Text Only | Print | Product List | Glossary On
Versions: 1 2 3 4 5 6 7 8 9 10 11 12 13 14 15 16 17 18 19 20 21
000
FTUS41 KLWX 300845 AAA
TAFBWI
TAF AMD
KBWI 300845Z 3009/3112 21005KT P6SM FEW150
     FM302200 19007KT P6SM BKN080
     FM311000 25004KT P6SM BKN080=

USA.gov is the U.S. government's official web portal to all federal, state and local government web resources and services.